createdAt,value
2023-02-14T00:01:11.329Z,-0.01
2023-02-14T00:03:38.139Z,-0.03
2023-02-14T00:06:10.459Z,-0.11
2023-02-14T00:08:37.662Z,-0.12
2023-02-14T00:11:05.542Z,-0.13
2023-02-14T00:13:32.468Z,-0.11
2023-02-14T00:15:59.175Z,-0.04
2023-02-14T00:18:48.670Z,-0.06
2023-02-14T00:21:15.301Z,0.00
2023-02-14T00:23:42.071Z,-0.06
2023-02-14T00:26:14.872Z,-0.05
2023-02-14T00:28:41.483Z,0.01
2023-02-14T00:31:08.338Z,0.01
2023-02-14T00:33:35.069Z,0.05
2023-02-14T00:36:07.127Z,0.02
2023-02-14T00:38:34.747Z,-0.03
2023-02-14T00:41:02.236Z,-0.07
2023-02-14T00:43:29.344Z,-0.13
2023-02-14T00:45:56.056Z,-0.10
2023-02-14T00:48:22.713Z,-0.17
2023-02-14T00:50:49.336Z,-0.09
2023-02-14T00:53:15.987Z,-0.08
2023-02-14T00:55:45.303Z,-0.13
2023-02-14T00:58:12.000Z,-0.07
2023-02-14T01:00:38.731Z,0.01
2023-02-14T01:03:05.327Z,-0.04
2023-02-14T01:05:31.935Z,-0.10
2023-02-14T01:07:58.536Z,0.06
2023-02-14T01:10:25.143Z,0.00
2023-02-14T01:12:51.787Z,0.01
2023-02-14T01:15:18.437Z,0.08
2023-02-14T01:17:45.052Z,0.06
2023-02-14T01:20:11.886Z,0.18
2023-02-14T01:22:39.309Z,0.22
2023-02-14T01:25:06.957Z,0.25
2023-02-14T01:27:33.740Z,0.32
2023-02-14T01:30:00.500Z,0.31
2023-02-14T01:32:31.488Z,0.35
2023-02-14T01:34:58.358Z,0.38
2023-02-14T01:37:25.063Z,0.45
2023-02-14T01:39:51.661Z,0.48
2023-02-14T01:42:18.298Z,0.52
2023-02-14T01:44:44.881Z,0.57
2023-02-14T01:47:12.492Z,0.54
2023-02-14T01:49:43.802Z,0.59
2023-02-14T01:52:15.961Z,0.60
2023-02-14T01:54:48.934Z,0.65
2023-02-14T01:57:19.288Z,0.67
2023-02-14T01:59:52.524Z,0.84
2023-02-14T02:02:23.766Z,0.87
2023-02-14T02:04:55.805Z,0.94
2023-02-14T02:07:26.594Z,0.99
2023-02-14T02:09:57.412Z,1.03
2023-02-14T02:12:24.812Z,1.06
2023-02-14T02:14:54.234Z,1.09
2023-02-14T02:17:33.242Z,1.10
2023-02-14T02:20:28.600Z,1.16
2023-02-14T02:23:28.862Z,1.19
2023-02-14T02:26:04.567Z,1.20
2023-02-14T02:28:55.999Z,1.24
2023-02-14T02:31:53.550Z,1.18
2023-02-14T02:34:30.307Z,1.15
2023-02-14T02:37:15.576Z,1.10
2023-02-14T02:40:03.230Z,1.09
2023-02-14T02:42:54.308Z,1.13
2023-02-14T02:45:35.931Z,1.13
2023-02-14T02:48:10.542Z,1.09
2023-02-14T02:51:03.770Z,1.10
2023-02-14T02:53:59.133Z,1.07
2023-02-14T02:56:45.833Z,1.01
2023-02-14T02:59:21.338Z,0.91
2023-02-14T03:02:11.569Z,0.96
2023-02-14T03:04:54.246Z,0.89
2023-02-14T03:07:35.361Z,0.85
2023-02-14T03:10:20.299Z,0.81
2023-02-14T03:13:04.906Z,0.76
2023-02-14T03:15:46.378Z,0.78
2023-02-14T03:18:51.038Z,0.78
2023-02-14T03:21:26.528Z,0.74
2023-02-14T03:24:24.518Z,0.70
2023-02-14T03:26:51.008Z,0.65
2023-02-14T03:29:40.409Z,0.66
2023-02-14T03:32:15.603Z,0.65
2023-02-14T03:34:58.559Z,0.62
2023-02-14T03:37:49.513Z,0.61
2023-02-14T03:40:36.435Z,0.52
2023-02-14T03:43:14.430Z,0.55
2023-02-14T03:45:51.992Z,0.58
2023-02-14T03:48:21.767Z,0.50
2023-02-14T03:50:50.083Z,0.50
2023-02-14T03:53:22.342Z,0.53
2023-02-14T03:56:32.427Z,0.66
2023-02-14T03:59:06.118Z,0.73
2023-02-14T04:01:42.593Z,0.79
2023-02-14T04:04:10.027Z,0.86
2023-02-14T04:06:36.682Z,0.90
2023-02-14T04:09:03.783Z,0.93
2023-02-14T04:11:35.134Z,0.96
2023-02-14T04:14:02.688Z,0.94
2023-02-14T04:16:29.326Z,0.97
2023-02-14T04:19:14.478Z,1.05
2023-02-14T04:21:41.103Z,1.15
2023-02-14T04:24:07.806Z,1.15
2023-02-14T04:26:34.414Z,1.18
2023-02-14T04:29:01.048Z,1.18
2023-02-14T04:31:27.868Z,1.20
2023-02-14T04:33:54.634Z,1.13
2023-02-14T04:36:21.234Z,1.14
2023-02-14T04:38:47.850Z,1.07
2023-02-14T04:41:14.435Z,1.05
2023-02-14T04:43:41.011Z,1.03
2023-02-14T04:46:07.655Z,1.09
2023-02-14T04:48:34.257Z,1.09
2023-02-14T04:51:01.225Z,1.04
2023-02-14T04:53:28.078Z,1.07
2023-02-14T04:55:54.707Z,1.10
2023-02-14T04:58:21.324Z,1.11
2023-02-14T05:00:48.295Z,1.14
2023-02-14T05:03:15.049Z,1.15
2023-02-14T05:05:41.718Z,1.19
2023-02-14T05:08:08.351Z,1.21
2023-02-14T05:10:35.006Z,1.28
2023-02-14T05:13:02.033Z,1.31
2023-02-14T05:15:28.661Z,1.31
2023-02-14T05:17:55.257Z,1.33
2023-02-14T05:20:21.954Z,1.37
2023-02-14T05:22:48.603Z,1.40
2023-02-14T05:25:15.258Z,1.44
2023-02-14T05:27:41.908Z,1.45
2023-02-14T05:30:10.028Z,1.45
2023-02-14T05:32:36.705Z,1.49
2023-02-14T05:35:03.782Z,1.55
2023-02-14T05:37:30.623Z,1.64
2023-02-14T05:39:57.250Z,1.66
2023-02-14T05:42:23.871Z,1.68
2023-02-14T05:44:50.541Z,1.64
2023-02-14T05:47:17.164Z,1.68
2023-02-14T05:49:43.770Z,1.70
2023-02-14T05:52:10.395Z,1.72
2023-02-14T05:54:37.033Z,1.80
2023-02-14T05:57:03.693Z,1.81
2023-02-14T05:59:30.370Z,1.88
2023-02-14T06:01:57.172Z,1.91
2023-02-14T06:04:23.913Z,1.96
2023-02-14T06:06:50.573Z,2.06
2023-02-14T06:09:17.285Z,2.07
2023-02-14T06:11:43.902Z,2.11
2023-02-14T06:14:10.573Z,2.12
2023-02-14T06:16:37.272Z,2.15
2023-02-14T06:19:03.951Z,2.21
2023-02-14T06:21:30.584Z,2.29
2023-02-14T06:23:57.272Z,2.37
2023-02-14T06:26:27.850Z,2.41
2023-02-14T06:28:56.355Z,2.49
2023-02-14T06:31:23.217Z,2.58
2023-02-14T06:33:49.917Z,2.67
2023-02-14T06:36:16.622Z,2.70
2023-02-14T06:38:43.364Z,2.77
2023-02-14T06:41:11.229Z,2.81
2023-02-14T06:43:38.521Z,2.86
2023-02-14T06:46:05.410Z,2.91
2023-02-14T06:48:32.238Z,2.96
2023-02-14T06:50:59.115Z,3.00
2023-02-14T06:53:26.166Z,3.01
2023-02-14T06:55:52.820Z,3.00
2023-02-14T06:58:19.728Z,2.98
2023-02-14T07:00:47.289Z,3.03
2023-02-14T07:03:14.672Z,3.04
2023-02-14T07:05:41.397Z,3.08
2023-02-14T07:08:08.256Z,3.07
2023-02-14T07:10:35.305Z,3.10
2023-02-14T07:13:02.091Z,3.12
2023-02-14T07:15:29.034Z,3.18
2023-02-14T07:17:56.180Z,3.22
2023-02-14T07:20:23.075Z,3.23
2023-02-14T07:22:49.781Z,3.26
2023-02-14T07:25:16.770Z,3.29
2023-02-14T07:27:43.964Z,3.31
2023-02-14T07:30:11.707Z,3.30
2023-02-14T07:32:39.216Z,3.28
2023-02-14T07:35:07.032Z,3.32
2023-02-14T07:37:35.237Z,3.33
2023-02-14T07:40:02.272Z,3.34
2023-02-14T07:42:29.040Z,3.37
2023-02-14T07:44:55.656Z,3.37
2023-02-14T07:47:22.309Z,3.38
2023-02-14T07:49:48.979Z,3.42
2023-02-14T07:52:15.655Z,3.45
2023-02-14T07:54:42.285Z,3.44
2023-02-14T07:57:09.181Z,3.43
2023-02-14T07:59:35.770Z,3.48
2023-02-14T08:02:02.452Z,3.54
2023-02-14T08:04:29.304Z,3.60
2023-02-14T08:06:55.946Z,3.56
2023-02-14T08:09:25.694Z,3.56
2023-02-14T08:12:12.114Z,3.59
2023-02-14T08:14:38.922Z,3.63
2023-02-14T08:17:07.370Z,3.68
2023-02-14T08:19:34.559Z,3.73
2023-02-14T08:22:01.273Z,3.71
2023-02-14T08:24:28.323Z,3.74
2023-02-14T08:26:55.025Z,3.70
2023-02-14T08:29:21.652Z,3.70
2023-02-14T08:31:48.866Z,3.69
2023-02-14T08:34:16.802Z,3.69
2023-02-14T08:36:43.670Z,3.72
2023-02-14T08:39:10.593Z,3.73
2023-02-14T08:41:37.236Z,3.76
2023-02-14T08:44:04.300Z,3.77
2023-02-14T08:46:31.054Z,3.82
2023-02-14T08:48:57.751Z,3.85
2023-02-14T08:51:25.887Z,3.85
2023-02-14T08:53:53.254Z,3.90
2023-02-14T08:56:22.622Z,3.87
2023-02-14T08:58:52.305Z,3.95
2023-02-14T09:01:19.194Z,3.94
2023-02-14T09:03:46.098Z,3.92
2023-02-14T09:06:17.209Z,3.97
2023-02-14T09:08:46.558Z,4.04
2023-02-14T09:11:19.287Z,4.02
2023-02-14T09:13:47.420Z,4.04
2023-02-14T09:16:17.345Z,4.06
2023-02-14T09:18:45.028Z,4.12
2023-02-14T09:21:14.541Z,4.18
2023-02-14T09:23:41.360Z,4.17
2023-02-14T09:26:10.073Z,4.20
2023-02-14T09:28:37.360Z,4.23
2023-02-14T09:31:19.226Z,4.28
2023-02-14T09:33:47.733Z,4.32
2023-02-14T09:36:20.524Z,4.43
2023-02-14T09:38:47.469Z,4.38
2023-02-14T09:41:29.385Z,4.40
2023-02-14T09:44:01.234Z,4.43
2023-02-14T09:46:30.781Z,4.52
2023-02-14T09:48:59.613Z,4.59
2023-02-14T09:51:29.224Z,4.57
2023-02-14T09:54:06.155Z,4.62
2023-02-14T09:56:58.631Z,4.69
2023-02-14T09:59:43.444Z,4.74
2023-02-14T10:02:19.504Z,4.80
2023-02-14T10:05:00.609Z,4.87
2023-02-14T10:07:58.240Z,4.98
2023-02-14T10:10:39.754Z,5.05
2023-02-14T10:13:25.080Z,5.08
2023-02-14T10:16:00.113Z,5.16
2023-02-14T10:18:49.557Z,5.18
2023-02-14T10:21:47.681Z,5.12
2023-02-14T10:24:21.026Z,5.09
2023-02-14T10:26:50.013Z,5.10
2023-02-14T10:29:18.298Z,5.15
2023-02-14T10:32:01.812Z,5.24
2023-02-14T10:34:42.083Z,5.37
2023-02-14T10:37:11.770Z,5.40
2023-02-14T10:40:07.892Z,5.46
2023-02-14T10:42:37.661Z,5.49
2023-02-14T10:45:20.725Z,5.51
2023-02-14T10:48:01.178Z,5.58
2023-02-14T10:50:33.514Z,5.60
2023-02-14T10:53:23.402Z,5.63
2023-02-14T10:55:59.158Z,5.60
2023-02-14T10:58:29.113Z,5.67
2023-02-14T11:01:00.525Z,5.71
2023-02-14T11:03:29.097Z,5.81
2023-02-14T11:05:56.420Z,5.84
2023-02-14T11:08:27.620Z,5.84
2023-02-14T11:11:19.044Z,5.89
2023-02-14T11:13:46.285Z,5.96
2023-02-14T11:16:28.647Z,6.00
2023-02-14T11:19:15.470Z,6.08
2023-02-14T11:21:44.528Z,6.14
2023-02-14T11:24:32.994Z,6.22
2023-02-14T11:27:11.587Z,6.24
2023-02-14T11:29:41.210Z,6.23
2023-02-14T11:32:22.763Z,6.26
2023-02-14T11:35:19.812Z,6.35
2023-02-14T11:37:51.301Z,6.29
2023-02-14T11:40:27.427Z,6.38
2023-02-14T11:43:02.143Z,6.42
2023-02-14T11:45:38.826Z,6.41
2023-02-14T11:48:34.937Z,6.44
2023-02-14T11:51:11.021Z,6.51
2023-02-14T11:53:56.146Z,6.51
2023-02-14T11:56:24.361Z,6.51
2023-02-14T11:58:57.845Z,6.52
2023-02-14T12:01:32.851Z,6.46
2023-02-14T12:04:05.203Z,6.49
2023-02-14T12:06:35.319Z,6.54
2023-02-14T12:09:23.786Z,6.56
2023-02-14T12:12:04.701Z,6.49
2023-02-14T12:14:34.433Z,6.56
2023-02-14T12:17:13.381Z,6.59
2023-02-14T12:19:56.516Z,6.61
2023-02-14T12:22:28.544Z,6.66
2023-02-14T12:25:10.647Z,6.61
2023-02-14T12:27:53.001Z,6.66
2023-02-14T12:30:22.699Z,6.69
2023-02-14T12:32:54.660Z,6.63
2023-02-14T12:35:44.538Z,6.69
2023-02-14T12:38:46.884Z,6.81
2023-02-14T12:41:33.967Z,6.96
2023-02-14T12:44:14.300Z,7.01
2023-02-14T12:46:49.063Z,7.14
2023-02-14T12:49:34.127Z,7.12
2023-02-14T12:52:31.836Z,7.25
2023-02-14T12:55:41.557Z,7.33
2023-02-14T12:58:36.086Z,7.33
2023-02-14T13:01:40.584Z,7.29
2023-02-14T13:04:26.031Z,7.19
2023-02-14T13:07:12.415Z,7.06
2023-02-14T13:09:59.310Z,7.00
2023-02-14T13:12:58.767Z,6.97
2023-02-14T13:16:00.741Z,6.96
2023-02-14T13:19:10.524Z,7.06
2023-02-14T13:21:39.209Z,7.00
2023-02-14T13:24:11.693Z,7.00
2023-02-14T13:26:41.736Z,7.00
2023-02-14T13:29:16.454Z,7.04
2023-02-14T13:31:43.593Z,7.14
2023-02-14T13:34:16.078Z,7.20
2023-02-14T13:36:44.003Z,7.21
2023-02-14T13:39:38.672Z,7.25
2023-02-14T13:42:06.510Z,7.30
2023-02-14T13:44:50.442Z,7.30
2023-02-14T13:47:23.475Z,7.30
2023-02-14T13:50:02.105Z,7.32
2023-02-14T13:52:48.976Z,7.28
2023-02-14T13:55:24.526Z,7.36
2023-02-14T13:58:24.388Z,7.47
2023-02-14T14:00:52.996Z,7.56
2023-02-14T14:03:29.199Z,7.62
2023-02-14T14:06:05.800Z,7.67
2023-02-14T14:08:36.691Z,7.75
2023-02-14T14:11:12.711Z,7.81
2023-02-14T14:13:42.405Z,7.84
2023-02-14T14:16:26.790Z,7.86
2023-02-14T14:18:53.607Z,7.87
2023-02-14T14:21:30.937Z,7.91
2023-02-14T14:24:19.026Z,7.94
2023-02-14T14:26:49.023Z,8.01
2023-02-14T14:29:25.896Z,8.03
2023-02-14T14:31:55.996Z,8.05
2023-02-14T14:34:25.947Z,8.05
2023-02-14T14:37:07.440Z,8.09
2023-02-14T14:39:36.105Z,8.11
2023-02-14T14:42:07.893Z,8.10
2023-02-14T14:44:36.186Z,8.12
2023-02-14T14:47:05.587Z,8.17
2023-02-14T14:49:32.952Z,8.23
2023-02-14T14:51:59.794Z,8.24
2023-02-14T14:54:27.654Z,8.28
2023-02-14T14:57:03.800Z,8.31
2023-02-14T14:59:43.750Z,8.34
2023-02-14T15:02:30.466Z,8.37
2023-02-14T15:04:57.135Z,8.40
2023-02-14T15:07:32.886Z,8.44
2023-02-14T15:10:00.111Z,8.47
2023-02-14T15:12:46.028Z,8.49
2023-02-14T15:15:16.972Z,8.46
2023-02-14T15:17:45.599Z,8.49
2023-02-14T15:20:23.835Z,8.54
2023-02-14T15:22:52.938Z,8.55
2023-02-14T15:25:27.110Z,8.59
2023-02-14T15:27:53.911Z,8.64
2023-02-14T15:30:20.787Z,8.67
2023-02-14T15:32:50.597Z,8.67
2023-02-14T15:35:24.163Z,8.67
2023-02-14T15:37:52.197Z,8.70
2023-02-14T15:40:31.182Z,8.74
2023-02-14T15:43:24.994Z,8.74
2023-02-14T15:45:57.508Z,8.73
2023-02-14T15:48:33.412Z,8.73
2023-02-14T15:51:02.532Z,8.70
2023-02-14T15:53:42.969Z,8.71
2023-02-14T15:56:21.140Z,8.72
2023-02-14T15:58:49.628Z,8.72
2023-02-14T16:01:21.679Z,8.74
2023-02-14T16:03:52.480Z,8.78
2023-02-14T16:06:43.759Z,8.81
2023-02-14T16:09:28.569Z,8.81
2023-02-14T16:11:55.310Z,8.81
2023-02-14T16:14:37.133Z,8.80
2023-02-14T16:17:14.161Z,8.80
2023-02-14T16:19:43.517Z,8.79
2023-02-14T16:22:32.209Z,8.79
2023-02-14T16:24:59.805Z,8.78
2023-02-14T16:27:26.935Z,8.74
2023-02-14T16:29:53.653Z,8.71
2023-02-14T16:32:22.816Z,8.71
2023-02-14T16:34:50.510Z,8.66
2023-02-14T16:37:33.284Z,8.61
2023-02-14T16:40:01.405Z,8.57
2023-02-14T16:42:28.223Z,8.51
2023-02-14T16:44:55.526Z,8.47
2023-02-14T16:47:22.528Z,8.46
2023-02-14T16:49:50.691Z,8.41
2023-02-14T16:52:23.485Z,8.31
2023-02-14T16:54:50.396Z,8.24
2023-02-14T16:57:22.373Z,8.16
2023-02-14T16:59:50.653Z,8.07
2023-02-14T17:02:19.267Z,8.01
2023-02-14T17:04:46.126Z,7.94
2023-02-14T17:07:15.832Z,7.89
2023-02-14T17:09:49.400Z,7.80
2023-02-14T17:12:25.122Z,7.63
2023-02-14T17:14:56.161Z,7.50
2023-02-14T17:17:22.870Z,7.39
2023-02-14T17:19:51.551Z,7.27
2023-02-14T17:22:19.549Z,7.14
2023-02-14T17:24:46.768Z,6.99
2023-02-14T17:27:14.276Z,6.89
2023-02-14T17:29:41.835Z,6.82
2023-02-14T17:32:12.887Z,6.79
2023-02-14T17:34:40.910Z,6.68
2023-02-14T17:37:07.625Z,6.55
2023-02-14T17:39:35.158Z,6.42
2023-02-14T17:42:02.463Z,6.38
2023-02-14T17:44:32.611Z,6.32
2023-02-14T17:46:59.622Z,6.25
2023-02-14T17:49:26.826Z,6.23
2023-02-14T17:51:53.499Z,6.08
2023-02-14T17:54:20.191Z,5.95
2023-02-14T17:56:46.818Z,5.88
2023-02-14T17:59:13.497Z,5.80
2023-02-14T18:01:40.273Z,5.72
2023-02-14T18:04:07.293Z,5.64
2023-02-14T18:06:34.724Z,5.59
2023-02-14T18:09:05.651Z,5.64
2023-02-14T18:11:32.468Z,5.60
2023-02-14T18:14:00.028Z,5.63
2023-02-14T18:16:27.260Z,5.60
2023-02-14T18:18:55.296Z,5.59
2023-02-14T18:21:24.308Z,5.60
2023-02-14T18:23:51.065Z,5.61
2023-02-14T18:26:18.837Z,5.64
2023-02-14T18:28:46.206Z,5.59
2023-02-14T18:31:17.137Z,5.59
2023-02-14T18:33:46.810Z,5.54
2023-02-14T18:36:17.077Z,5.53
2023-02-14T18:38:46.685Z,5.45
2023-02-14T18:41:16.067Z,5.43
2023-02-14T18:43:44.842Z,5.20
2023-02-14T18:46:23.774Z,5.09
2023-02-14T18:48:51.461Z,5.05
2023-02-14T18:51:23.962Z,4.97
2023-02-14T18:53:52.373Z,4.91
2023-02-14T18:56:21.809Z,4.81
2023-02-14T18:58:52.850Z,4.69
2023-02-14T19:01:23.029Z,4.61
2023-02-14T19:03:51.497Z,4.62
2023-02-14T19:06:19.905Z,4.49
2023-02-14T19:08:46.929Z,4.42
2023-02-14T19:11:23.813Z,4.43
2023-02-14T19:13:54.582Z,4.48
2023-02-14T19:16:33.829Z,4.51
2023-02-14T19:19:02.661Z,4.44
2023-02-14T19:21:34.861Z,4.36
2023-02-14T19:24:04.157Z,4.31
2023-02-14T19:26:35.168Z,4.33
2023-02-14T19:29:05.545Z,4.35
2023-02-14T19:31:36.575Z,4.34
2023-02-14T19:34:06.226Z,4.37
2023-02-14T19:36:36.430Z,4.41
2023-02-14T19:39:03.743Z,4.49
2023-02-14T19:41:34.370Z,4.42
2023-02-14T19:44:04.737Z,4.39
2023-02-14T19:46:33.009Z,4.36
2023-02-14T19:49:00.659Z,4.32
2023-02-14T19:51:32.860Z,4.28
2023-02-14T19:54:01.524Z,4.25
2023-02-14T19:56:31.566Z,4.22
2023-02-14T19:58:59.023Z,4.10
2023-02-14T20:01:36.198Z,4.10
2023-02-14T20:04:04.051Z,4.00
2023-02-14T20:06:31.368Z,3.95
2023-02-14T20:08:58.106Z,3.87
2023-02-14T20:11:33.640Z,3.82
2023-02-14T20:14:01.639Z,3.78
2023-02-14T20:16:30.976Z,3.75
2023-02-14T20:18:58.663Z,3.76
2023-02-14T20:21:28.361Z,3.65
2023-02-14T20:24:00.929Z,3.58
2023-02-14T20:26:32.858Z,3.61
2023-02-14T20:29:03.996Z,3.61
2023-02-14T20:31:33.288Z,3.60
2023-02-14T20:34:00.703Z,3.56
2023-02-14T20:36:27.494Z,3.50
2023-02-14T20:39:00.869Z,3.47
2023-02-14T20:41:29.094Z,3.48
2023-02-14T20:44:03.317Z,3.48
2023-02-14T20:46:31.004Z,3.40
2023-02-14T20:48:57.695Z,3.37
2023-02-14T20:51:25.890Z,3.31
2023-02-14T20:53:53.891Z,3.27
2023-02-14T20:56:25.167Z,3.27
2023-02-14T20:58:51.769Z,3.17
2023-02-14T21:01:21.613Z,3.19
2023-02-14T21:03:50.906Z,3.17
2023-02-14T21:06:19.059Z,3.16
2023-02-14T21:08:46.073Z,3.13
2023-02-14T21:11:16.305Z,3.14
2023-02-14T21:13:43.608Z,3.13
2023-02-14T21:16:18.603Z,3.16
2023-02-14T21:18:48.855Z,3.15
2023-02-14T21:21:21.822Z,3.21
2023-02-14T21:23:52.320Z,3.26
2023-02-14T21:26:20.276Z,3.33
2023-02-14T21:28:48.009Z,3.40
2023-02-14T21:31:17.340Z,3.39
2023-02-14T21:33:44.427Z,3.42
2023-02-14T21:36:14.131Z,3.51
2023-02-14T21:38:42.682Z,3.52
2023-02-14T21:41:12.522Z,3.52
2023-02-14T21:43:41.469Z,3.52
2023-02-14T21:46:12.529Z,3.48
2023-02-14T21:48:58.740Z,3.41
2023-02-14T21:51:27.463Z,3.38
2023-02-14T21:53:54.811Z,3.33
2023-02-14T21:56:22.843Z,3.29
2023-02-14T21:58:52.821Z,3.19
2023-02-14T22:01:30.144Z,3.22
2023-02-14T22:03:59.274Z,3.23
2023-02-14T22:06:27.627Z,3.33
2023-02-14T22:08:56.661Z,3.39
2023-02-14T22:11:25.288Z,3.29
2023-02-14T22:13:52.040Z,3.22
2023-02-14T22:16:20.796Z,3.20
2023-02-14T22:18:48.331Z,3.11
2023-02-14T22:21:26.691Z,3.05
2023-02-14T22:23:56.923Z,2.96
2023-02-14T22:26:33.923Z,3.03
2023-02-14T22:29:02.238Z,3.15
2023-02-14T22:31:33.635Z,3.19
2023-02-14T22:34:00.843Z,3.20
2023-02-14T22:36:27.768Z,3.23
2023-02-14T22:38:57.273Z,3.17
2023-02-14T22:41:25.462Z,3.14
2023-02-14T22:43:53.746Z,3.09
2023-02-14T22:46:28.383Z,3.07
2023-02-14T22:48:57.361Z,3.04
2023-02-14T22:51:33.407Z,3.01
2023-02-14T22:54:06.104Z,3.01
2023-02-14T22:56:38.961Z,2.97
2023-02-14T22:59:08.036Z,2.94
2023-02-14T23:01:35.579Z,2.98
2023-02-14T23:04:03.471Z,2.94
2023-02-14T23:06:32.109Z,2.99
2023-02-14T23:08:58.934Z,3.08
2023-02-14T23:11:30.664Z,3.01
2023-02-14T23:14:16.525Z,2.97
2023-02-14T23:17:02.641Z,2.90
2023-02-14T23:19:52.153Z,2.82
2023-02-14T23:22:21.809Z,2.76
2023-02-14T23:24:50.512Z,2.81
2023-02-14T23:27:19.777Z,2.72
2023-02-14T23:29:46.837Z,2.65
2023-02-14T23:32:14.408Z,2.58
2023-02-14T23:34:42.545Z,2.47
2023-02-14T23:37:10.287Z,2.35
2023-02-14T23:39:37.721Z,2.29
2023-02-14T23:42:14.849Z,2.23
2023-02-14T23:44:43.451Z,2.18
2023-02-14T23:47:11.085Z,2.10
2023-02-14T23:49:39.675Z,1.96
2023-02-14T23:52:12.369Z,1.92
2023-02-14T23:54:39.984Z,1.84
2023-02-14T23:57:07.575Z,1.80
2023-02-14T23:59:34.612Z,1.80
